sensor_id;sensor_type;location;lat;lon;timestamp;pressure;altitude;pressure_sealevel;temperature;humidity
37764;BME280;23602;51.084;7.090;2023-04-05T00:01:18;100849.56;;;0.51;100.00
37764;BME280;23602;51.084;7.090;2023-04-05T00:03:44;100854.34;;;0.57;100.00
37764;BME280;23602;51.084;7.090;2023-04-05T00:06:11;100855.25;;;0.67;100.00
37764;BME280;23602;51.084;7.090;2023-04-05T00:08:37;100854.06;;;0.71;100.00
37764;BME280;23602;51.084;7.090;2023-04-05T00:11:02;100855.31;;;0.77;100.00
37764;BME280;23602;51.084;7.090;2023-04-05T00:13:28;100855.06;;;0.80;100.00
37764;BME280;23602;51.084;7.090;2023-04-05T00:15:54;100844.94;;;0.85;100.00
37764;BME280;23602;51.084;7.090;2023-04-05T00:18:22;100845.38;;;0.90;100.00
37764;BME280;23602;51.084;7.090;2023-04-05T00:20:48;100848.59;;;0.93;100.00
37764;BME280;23602;51.084;7.090;2023-04-05T00:23:13;100846.25;;;1.00;100.00
37764;BME280;23602;51.084;7.090;2023-04-05T00:25:40;100839.88;;;1.02;100.00
37764;BME280;23602;51.084;7.090;2023-04-05T00:28:05;100833.72;;;1.02;100.00
37764;BME280;23602;51.084;7.090;2023-04-05T00:30:31;100838.78;;;1.05;100.00
37764;BME280;23602;51.084;7.090;2023-04-05T00:32:57;100837.66;;;1.07;100.00
37764;BME280;23602;51.084;7.090;2023-04-05T00:35:22;100836.31;;;1.13;100.00
37764;BME280;23602;51.084;7.090;2023-04-05T00:37:51;100839.41;;;1.18;100.00
37764;BME280;23602;51.084;7.090;2023-04-05T00:40:16;100838.28;;;1.20;100.00
37764;BME280;23602;51.084;7.090;2023-04-05T00:42:41;100838.88;;;1.24;100.00
37764;BME280;23602;51.084;7.090;2023-04-05T00:45:07;100838.03;;;1.23;100.00
37764;BME280;23602;51.084;7.090;2023-04-05T00:47:32;100834.13;;;1.27;100.00
37764;BME280;23602;51.084;7.090;2023-04-05T00:49:58;100847.00;;;1.32;100.00
37764;BME280;23602;51.084;7.090;2023-04-05T00:52:23;100833.88;;;1.31;100.00
37764;BME280;23602;51.084;7.090;2023-04-05T00:54:48;100838.06;;;1.33;100.00
37764;BME280;23602;51.084;7.090;2023-04-05T00:57:15;100834.19;;;1.37;100.00
37764;BME280;23602;51.084;7.090;2023-04-05T00:59:41;100830.56;;;1.38;100.00
37764;BME280;23602;51.084;7.090;2023-04-05T01:04:32;100829.34;;;1.42;100.00
37764;BME280;23602;51.084;7.090;2023-04-05T01:07:06;100821.94;;;1.46;100.00
37764;BME280;23602;51.084;7.090;2023-04-05T01:12:18;100809.97;;;1.51;100.00
37764;BME280;23602;51.084;7.090;2023-04-05T01:14:54;100812.63;;;1.51;100.00
37764;BME280;23602;51.084;7.090;2023-04-05T01:17:20;100809.72;;;1.54;100.00
37764;BME280;23602;51.084;7.090;2023-04-05T01:19:46;100817.25;;;1.59;100.00
37764;BME280;23602;51.084;7.090;2023-04-05T01:27:23;100810.84;;;1.61;100.00
37764;BME280;23602;51.084;7.090;2023-04-05T01:30:16;100815.97;;;1.63;100.00
37764;BME280;23602;51.084;7.090;2023-04-05T01:32:59;100813.47;;;1.61;100.00
37764;BME280;23602;51.084;7.090;2023-04-05T01:35:43;100811.09;;;1.58;100.00
37764;BME280;23602;51.084;7.090;2023-04-05T01:38:14;100813.06;;;1.56;100.00
37764;BME280;23602;51.084;7.090;2023-04-05T01:40:40;100807.75;;;1.56;100.00
37764;BME280;23602;51.084;7.090;2023-04-05T01:43:15;100797.44;;;1.53;100.00
37764;BME280;23602;51.084;7.090;2023-04-05T01:45:41;100795.47;;;1.55;100.00
37764;BME280;23602;51.084;7.090;2023-04-05T01:48:06;100793.81;;;1.54;100.00
37764;BME280;23602;51.084;7.090;2023-04-05T01:50:32;100789.63;;;1.52;100.00
37764;BME280;23602;51.084;7.090;2023-04-05T01:52:57;100793.50;;;1.48;100.00
37764;BME280;23602;51.084;7.090;2023-04-05T01:55:23;100797.13;;;1.37;100.00
37764;BME280;23602;51.084;7.090;2023-04-05T01:57:48;100786.91;;;1.33;100.00
37764;BME280;23602;51.084;7.090;2023-04-05T02:00:17;100786.47;;;1.27;100.00
37764;BME280;23602;51.084;7.090;2023-04-05T02:02:42;100782.59;;;1.22;100.00
37764;BME280;23602;51.084;7.090;2023-04-05T02:05:08;100792.84;;;1.15;100.00
37764;BME280;23602;51.084;7.090;2023-04-05T02:07:33;100779.31;;;1.09;100.00
37764;BME280;23602;51.084;7.090;2023-04-05T02:09:58;100781.66;;;1.02;100.00
37764;BME280;23602;51.084;7.090;2023-04-05T02:12:24;100784.19;;;1.04;100.00
37764;BME280;23602;51.084;7.090;2023-04-05T02:14:49;100792.78;;;0.96;100.00
37764;BME280;23602;51.084;7.090;2023-04-05T02:17:16;100792.47;;;0.90;100.00
37764;BME280;23602;51.084;7.090;2023-04-05T02:19:42;100786.88;;;0.83;100.00
37764;BME280;23602;51.084;7.090;2023-04-05T02:22:10;100781.97;;;0.79;100.00
37764;BME280;23602;51.084;7.090;2023-04-05T02:24:35;100785.13;;;0.73;100.00
37764;BME280;23602;51.084;7.090;2023-04-05T02:27:03;100780.34;;;0.67;100.00
37764;BME280;23602;51.084;7.090;2023-04-05T02:29:36;100784.50;;;0.59;100.00
37764;BME280;23602;51.084;7.090;2023-04-05T02:32:09;100783.81;;;0.57;100.00
37764;BME280;23602;51.084;7.090;2023-04-05T02:34:34;100775.41;;;0.52;100.00
37764;BME280;23602;51.084;7.090;2023-04-05T02:37:01;100785.09;;;0.42;100.00
37764;BME280;23602;51.084;7.090;2023-04-05T02:39:27;100780.31;;;0.36;100.00
37764;BME280;23602;51.084;7.090;2023-04-05T02:41:53;100783.50;;;0.30;100.00
37764;BME280;23602;51.084;7.090;2023-04-05T02:44:18;100792.38;;;0.29;100.00
37764;BME280;23602;51.084;7.090;2023-04-05T02:46:43;100785.69;;;0.25;100.00
37764;BME280;23602;51.084;7.090;2023-04-05T02:49:09;100784.13;;;0.23;100.00
37764;BME280;23602;51.084;7.090;2023-04-05T02:51:34;100785.09;;;0.22;100.00
37764;BME280;23602;51.084;7.090;2023-04-05T02:54:01;100794.56;;;0.24;100.00
37764;BME280;23602;51.084;7.090;2023-04-05T02:56:28;100800.09;;;0.21;100.00
37764;BME280;23602;51.084;7.090;2023-04-05T02:58:54;100794.03;;;0.10;100.00
37764;BME280;23602;51.084;7.090;2023-04-05T03:01:19;100789.00;;;0.07;100.00
37764;BME280;23602;51.084;7.090;2023-04-05T03:03:45;100797.78;;;0.07;100.00
37764;BME280;23602;51.084;7.090;2023-04-05T03:06:10;100790.81;;;0.06;100.00
37764;BME280;23602;51.084;7.090;2023-04-05T03:08:36;100800.91;;;0.01;100.00
37764;BME280;23602;51.084;7.090;2023-04-05T03:11:03;100794.47;;;-0.06;100.00
37764;BME280;23602;51.084;7.090;2023-04-05T03:13:28;100785.94;;;-0.10;100.00
37764;BME280;23602;51.084;7.090;2023-04-05T03:15:54;100794.84;;;-0.11;100.00
37764;BME280;23602;51.084;7.090;2023-04-05T03:18:19;100787.56;;;-0.18;100.00
37764;BME280;23602;51.084;7.090;2023-04-05T03:20:46;100786.72;;;-0.19;100.00
37764;BME280;23602;51.084;7.090;2023-04-05T03:23:13;100789.72;;;-0.23;100.00
37764;BME280;23602;51.084;7.090;2023-04-05T03:25:39;100784.09;;;-0.30;100.00
37764;BME280;23602;51.084;7.090;2023-04-05T03:28:05;100784.94;;;-0.29;100.00
37764;BME280;23602;51.084;7.090;2023-04-05T03:30:32;100790.47;;;-0.32;100.00
37764;BME280;23602;51.084;7.090;2023-04-05T03:32:58;100790.59;;;-0.34;100.00
37764;BME280;23602;51.084;7.090;2023-04-05T03:35:27;100785.41;;;-0.35;100.00
37764;BME280;23602;51.084;7.090;2023-04-05T03:37:54;100781.13;;;-0.36;100.00
37764;BME280;23602;51.084;7.090;2023-04-05T03:40:22;100775.84;;;-0.36;100.00
37764;BME280;23602;51.084;7.090;2023-04-05T03:42:47;100774.53;;;-0.42;100.00
37764;BME280;23602;51.084;7.090;2023-04-05T03:45:13;100773.44;;;-0.39;100.00
37764;BME280;23602;51.084;7.090;2023-04-05T03:47:39;100785.94;;;-0.41;100.00
37764;BME280;23602;51.084;7.090;2023-04-05T03:50:04;100777.56;;;-0.46;100.00
37764;BME280;23602;51.084;7.090;2023-04-05T03:52:30;100775.63;;;-0.55;100.00
37764;BME280;23602;51.084;7.090;2023-04-05T03:54:55;100776.63;;;-0.56;100.00
37764;BME280;23602;51.084;7.090;2023-04-05T03:57:20;100776.63;;;-0.56;100.00
37764;BME280;23602;51.084;7.090;2023-04-05T03:59:46;100775.16;;;-0.60;100.00
37764;BME280;23602;51.084;7.090;2023-04-05T04:02:12;100768.22;;;-0.61;100.00
37764;BME280;23602;51.084;7.090;2023-04-05T04:04:37;100772.91;;;-0.65;100.00
37764;BME280;23602;51.084;7.090;2023-04-05T04:07:03;100767.88;;;-0.68;100.00
37764;BME280;23602;51.084;7.090;2023-04-05T04:09:30;100770.50;;;-0.68;100.00
37764;BME280;23602;51.084;7.090;2023-04-05T04:11:55;100775.31;;;-0.73;100.00
37764;BME280;23602;51.084;7.090;2023-04-05T04:14:23;100770.63;;;-0.70;100.00
37764;BME280;23602;51.084;7.090;2023-04-05T04:16:48;100777.22;;;-0.75;100.00
37764;BME280;23602;51.084;7.090;2023-04-05T04:19:16;100767.06;;;-0.80;100.00
37764;BME280;23602;51.084;7.090;2023-04-05T04:21:41;100768.72;;;-0.79;100.00
37764;BME280;23602;51.084;7.090;2023-04-05T04:24:16;100767.75;;;-0.78;100.00
37764;BME280;23602;51.084;7.090;2023-04-05T04:26:44;100767.75;;;-0.78;100.00
37764;BME280;23602;51.084;7.090;2023-04-05T04:29:09;100767.06;;;-0.80;100.00
37764;BME280;23602;51.084;7.090;2023-04-05T04:31:37;100770.63;;;-0.81;100.00
37764;BME280;23602;51.084;7.090;2023-04-05T04:34:02;100769.09;;;-0.83;100.00
37764;BME280;23602;51.084;7.090;2023-04-05T04:36:29;100770.16;;;-0.86;100.00
37764;BME280;23602;51.084;7.090;2023-04-05T04:39:03;100772.69;;;-0.84;100.00
37764;BME280;23602;51.084;7.090;2023-04-05T04:41:31;100773.53;;;-0.84;100.00
37764;BME280;23602;51.084;7.090;2023-04-05T04:44:00;100765.59;;;-0.84;100.00
37764;BME280;23602;51.084;7.090;2023-04-05T04:46:27;100769.84;;;-0.92;100.00
37764;BME280;23602;51.084;7.090;2023-04-05T04:48:55;100766.22;;;-0.91;100.00
37764;BME280;23602;51.084;7.090;2023-04-05T04:51:21;100772.56;;;-0.94;100.00
37764;BME280;23602;51.084;7.090;2023-04-05T04:53:46;100768.28;;;-0.95;100.00
37764;BME280;23602;51.084;7.090;2023-04-05T04:56:12;100775.47;;;-0.97;100.00
37764;BME280;23602;51.084;7.090;2023-04-05T04:58:39;100773.06;;;-1.00;100.00
37764;BME280;23602;51.084;7.090;2023-04-05T05:01:08;100773.16;;;-1.01;100.00
37764;BME280;23602;51.084;7.090;2023-04-05T05:03:36;100776.66;;;-1.01;100.00
37764;BME280;23602;51.084;7.090;2023-04-05T05:06:03;100775.00;;;-1.02;100.00
37764;BME280;23602;51.084;7.090;2023-04-05T05:08:28;100777.63;;;-1.02;100.00
37764;BME280;23602;51.084;7.090;2023-04-05T05:10:54;100773.91;;;-0.99;100.00
37764;BME280;23602;51.084;7.090;2023-04-05T05:13:19;100784.00;;;-1.04;100.00
37764;BME280;23602;51.084;7.090;2023-04-05T05:15:44;100781.22;;;-1.03;100.00
37764;BME280;23602;51.084;7.090;2023-04-05T05:18:10;100778.59;;;-1.03;100.00
37764;BME280;23602;51.084;7.090;2023-04-05T05:20:36;100778.81;;;-1.06;100.00
37764;BME280;23602;51.084;7.090;2023-04-05T05:23:01;100775.22;;;-1.05;100.00
37764;BME280;23602;51.084;7.090;2023-04-05T05:25:29;100772.47;;;-1.03;100.00
37764;BME280;23602;51.084;7.090;2023-04-05T05:27:54;100776.88;;;-1.04;100.00
37764;BME280;23602;51.084;7.090;2023-04-05T05:30:19;100774.03;;;-1.01;100.00
37764;BME280;23602;51.084;7.090;2023-04-05T05:32:45;100772.00;;;-0.97;100.00
37764;BME280;23602;51.084;7.090;2023-04-05T05:35:10;100777.38;;;-0.99;100.00
37764;BME280;23602;51.084;7.090;2023-04-05T05:37:36;100774.41;;;-0.94;100.00
37764;BME280;23602;51.084;7.090;2023-04-05T05:40:01;100778.22;;;-0.87;100.00
37764;BME280;23602;51.084;7.090;2023-04-05T05:42:29;100768.38;;;-0.85;100.00
37764;BME280;23602;51.084;7.090;2023-04-05T05:44:56;100768.97;;;-0.82;100.00
37764;BME280;23602;51.084;7.090;2023-04-05T05:47:22;100774.13;;;-0.80;100.00
37764;BME280;23602;51.084;7.090;2023-04-05T05:49:47;100772.09;;;-0.77;100.00
37764;BME280;23602;51.084;7.090;2023-04-05T05:52:13;100775.69;;;-0.78;100.00
37764;BME280;23602;51.084;7.090;2023-04-05T05:54:38;100776.28;;;-0.74;100.00
37764;BME280;23602;51.084;7.090;2023-04-05T05:57:04;100784.22;;;-0.74;100.00
37764;BME280;23602;51.084;7.090;2023-04-05T06:02:34;100792.94;;;-0.63;100.00
37764;BME280;23602;51.084;7.090;2023-04-05T06:04:59;100799.28;;;-0.54;100.00
37764;BME280;23602;51.084;7.090;2023-04-05T06:07:26;100794.97;;;-0.55;100.00
37764;BME280;23602;51.084;7.090;2023-04-05T06:09:51;100785.84;;;-0.51;100.00
37764;BME280;23602;51.084;7.090;2023-04-05T06:12:16;100790.16;;;-0.50;100.00
37764;BME280;23602;51.084;7.090;2023-04-05T06:14:42;100796.97;;;-0.47;100.00
37764;BME280;23602;51.084;7.090;2023-04-05T06:17:07;100787.97;;;-0.45;100.00
37764;BME280;23602;51.084;7.090;2023-04-05T06:19:32;100795.53;;;-0.40;100.00
37764;BME280;23602;51.084;7.090;2023-04-05T06:21:58;100787.50;;;-0.39;100.00
37764;BME280;23602;51.084;7.090;2023-04-05T06:24:24;100791.53;;;-0.35;100.00
37764;BME280;23602;51.084;7.090;2023-04-05T06:26:51;100798.84;;;-0.27;100.00
37764;BME280;23602;51.084;7.090;2023-04-05T06:29:16;100788.25;;;-0.16;100.00
37764;BME280;23602;51.084;7.090;2023-04-05T06:31:42;100762.75;;;-0.06;100.00
37764;BME280;23602;51.084;7.090;2023-04-05T06:34:10;100768.50;;;-0.01;100.00
37764;BME280;23602;51.084;7.090;2023-04-05T06:36:35;100761.44;;;0.20;100.00
37764;BME280;23602;51.084;7.090;2023-04-05T06:39:01;100759.97;;;0.27;100.00
37764;BME280;23602;51.084;7.090;2023-04-05T06:41:26;100755.63;;;0.47;100.00
37764;BME280;23602;51.084;7.090;2023-04-05T06:43:52;100758.84;;;0.50;100.00
37764;BME280;23602;51.084;7.090;2023-04-05T06:46:17;100756.41;;;0.58;100.00
37764;BME280;23602;51.084;7.090;2023-04-05T06:48:42;100759.03;;;0.58;100.00
37764;BME280;23602;51.084;7.090;2023-04-05T06:51:08;100751.16;;;0.68;100.00
37764;BME280;23602;51.084;7.090;2023-04-05T06:53:34;100760.63;;;0.71;100.00
37764;BME280;23602;51.084;7.090;2023-04-05T06:55:59;100761.06;;;0.76;100.00
37764;BME280;23602;51.084;7.090;2023-04-05T06:58:25;100758.97;;;0.79;100.00
37764;BME280;23602;51.084;7.090;2023-04-05T07:00:51;100751.56;;;0.94;100.00
37764;BME280;23602;51.084;7.090;2023-04-05T07:03:17;100752.09;;;0.97;100.00
37764;BME280;23602;51.084;7.090;2023-04-05T07:05:49;100753.13;;;1.06;100.00
37764;BME280;23602;51.084;7.090;2023-04-05T07:08:14;100748.53;;;1.08;100.00
37764;BME280;23602;51.084;7.090;2023-04-05T07:10:40;100746.78;;;1.27;100.00
37764;BME280;23602;51.084;7.090;2023-04-05T07:13:05;100749.22;;;1.50;100.00
37764;BME280;23602;51.084;7.090;2023-04-05T07:15:31;100748.09;;;1.52;100.00
37764;BME280;23602;51.084;7.090;2023-04-05T07:17:56;100738.19;;;1.54;100.00
37764;BME280;23602;51.084;7.090;2023-04-05T07:20:22;100743.66;;;1.81;100.00
37764;BME280;23602;51.084;7.090;2023-04-05T07:22:47;100740.03;;;1.92;100.00
37764;BME280;23602;51.084;7.090;2023-04-05T07:25:12;100734.44;;;2.05;100.00
37764;BME280;23602;51.084;7.090;2023-04-05T07:27:38;100733.09;;;2.47;100.00
37764;BME280;23602;51.084;7.090;2023-04-05T07:30:04;100737.97;;;2.61;100.00
37764;BME280;23602;51.084;7.090;2023-04-05T07:32:30;100726.75;;;2.67;100.00
37764;BME280;23602;51.084;7.090;2023-04-05T07:34:55;100737.09;;;2.70;100.00
37764;BME280;23602;51.084;7.090;2023-04-05T07:37:21;100736.81;;;2.73;100.00
37764;BME280;23602;51.084;7.090;2023-04-05T07:39:46;100730.22;;;2.87;100.00
37764;BME280;23602;51.084;7.090;2023-04-05T07:42:12;100737.38;;;3.04;100.00
37764;BME280;23602;51.084;7.090;2023-04-05T07:44:37;100733.34;;;3.27;100.00
37764;BME280;23602;51.084;7.090;2023-04-05T07:47:03;100736.50;;;3.40;100.00
37764;BME280;23602;51.084;7.090;2023-04-05T07:52:34;100720.88;;;3.72;100.00
37764;BME280;23602;51.084;7.090;2023-04-05T07:54:59;100719.44;;;4.13;100.00
37764;BME280;23602;51.084;7.090;2023-04-05T07:57:25;100718.91;;;4.35;100.00
37764;BME280;23602;51.084;7.090;2023-04-05T07:59:52;100725.03;;;4.54;100.00
37764;BME280;23602;51.084;7.090;2023-04-05T08:02:19;100729.78;;;4.68;100.00
37764;BME280;23602;51.084;7.090;2023-04-05T08:04:44;100722.72;;;4.84;100.00
37764;BME280;23602;51.084;7.090;2023-04-05T08:07:10;100718.63;;;5.06;100.00
37764;BME280;23602;51.084;7.090;2023-04-05T08:09:35;100725.91;;;5.30;100.00
37764;BME280;23602;51.084;7.090;2023-04-05T08:12:01;100722.00;;;5.58;100.00
37764;BME280;23602;51.084;7.090;2023-04-05T08:14:26;100720.91;;;5.85;100.00
37764;BME280;23602;51.084;7.090;2023-04-05T08:16:52;100710.06;;;6.10;100.00
37764;BME280;23602;51.084;7.090;2023-04-05T08:19:17;100713.91;;;6.40;100.00
37764;BME280;23602;51.084;7.090;2023-04-05T08:21:43;100718.50;;;6.70;100.00
37764;BME280;23602;51.084;7.090;2023-04-05T08:24:08;100709.16;;;6.74;74.89
37764;BME280;23602;51.084;7.090;2023-04-05T08:26:33;100713.09;;;6.86;69.29
37764;BME280;23602;51.084;7.090;2023-04-05T08:28:59;100719.06;;;7.05;78.56
37764;BME280;23602;51.084;7.090;2023-04-05T08:31:24;100717.19;;;7.21;87.01
37764;BME280;23602;51.084;7.090;2023-04-05T08:33:50;100720.47;;;7.62;100.00
37764;BME280;23602;51.084;7.090;2023-04-05T08:36:15;100711.66;;;7.76;69.12
37764;BME280;23602;51.084;7.090;2023-04-05T08:38:41;100706.31;;;7.99;62.39
37764;BME280;23602;51.084;7.090;2023-04-05T08:41:13;100707.81;;;8.76;71.05
37764;BME280;23602;51.084;7.090;2023-04-05T08:46:07;100701.22;;;9.37;59.82
37764;BME280;23602;51.084;7.090;2023-04-05T08:48:33;100702.06;;;9.59;57.08
37764;BME280;23602;51.084;7.090;2023-04-05T08:51:00;100699.50;;;10.56;57.40
37764;BME280;23602;51.084;7.090;2023-04-05T08:53:25;100700.31;;;10.85;53.90
37764;BME280;23602;51.084;7.090;2023-04-05T08:55:52;100693.91;;;11.80;53.02
37764;BME280;23602;51.084;7.090;2023-04-05T08:58:19;100697.88;;;12.24;51.40
37764;BME280;23602;51.084;7.090;2023-04-05T09:00:46;100692.91;;;12.34;49.26
37764;BME280;23602;51.084;7.090;2023-04-05T09:03:16;100691.88;;;12.22;47.50
37764;BME280;23602;51.084;7.090;2023-04-05T09:05:45;100690.06;;;11.49;48.25
37764;BME280;23602;51.084;7.090;2023-04-05T09:08:12;100702.91;;;11.60;50.30
37764;BME280;23602;51.084;7.090;2023-04-05T09:10:38;100699.41;;;11.59;51.79
37764;BME280;23602;51.084;7.090;2023-04-05T09:13:03;100699.06;;;11.69;48.61
37764;BME280;23602;51.084;7.090;2023-04-05T09:15:29;100681.28;;;12.33;47.08
37764;BME280;23602;51.084;7.090;2023-04-05T09:17:54;100684.41;;;12.56;45.83
37764;BME280;23602;51.084;7.090;2023-04-05T09:20:20;100684.13;;;12.84;44.77
37764;BME280;23602;51.084;7.090;2023-04-05T09:22:46;100686.06;;;12.57;47.02
37764;BME280;23602;51.084;7.090;2023-04-05T09:25:53;100692.25;;;12.78;46.37
37764;BME280;23602;51.084;7.090;2023-04-05T09:28:00;100678.84;;;13.28;46.23
37764;BME280;23602;51.084;7.090;2023-04-05T09:30:29;100672.47;;;13.92;43.85
37764;BME280;23602;51.084;7.090;2023-04-05T09:32:54;100668.41;;;14.08;44.62
37764;BME280;23602;51.084;7.090;2023-04-05T09:35:20;100674.03;;;12.60;41.96
37764;BME280;23602;51.084;7.090;2023-04-05T09:37:59;100683.13;;;11.74;47.37
37764;BME280;23602;51.084;7.090;2023-04-05T09:40:46;100666.94;;;12.72;42.25
37764;BME280;23602;51.084;7.090;2023-04-05T09:43:42;100661.22;;;13.64;44.80
37764;BME280;23602;51.084;7.090;2023-04-05T09:48:59;100659.66;;;12.86;42.59
37764;BME280;23602;51.084;7.090;2023-04-05T09:51:46;100669.50;;;13.69;42.61
37764;BME280;23602;51.084;7.090;2023-04-05T09:54:16;100651.59;;;14.55;41.94
37764;BME280;23602;51.084;7.090;2023-04-05T09:56:58;100654.31;;;15.28;40.90
37764;BME280;23602;51.084;7.090;2023-04-05T09:59:31;100657.09;;;14.17;37.63
37764;BME280;23602;51.084;7.090;2023-04-05T10:02:00;100659.28;;;12.69;40.42
37764;BME280;23602;51.084;7.090;2023-04-05T10:04:36;100657.69;;;13.63;44.22
37764;BME280;23602;51.084;7.090;2023-04-05T10:07:02;100657.59;;;13.76;39.69
37764;BME280;23602;51.084;7.090;2023-04-05T10:09:44;100664.38;;;13.03;43.49
37764;BME280;23602;51.084;7.090;2023-04-05T10:12:13;100656.25;;;13.92;42.39
37764;BME280;23602;51.084;7.090;2023-04-05T10:14:48;100646.13;;;14.37;38.89
37764;BME280;23602;51.084;7.090;2023-04-05T10:22:21;100654.50;;;12.78;42.14
37764;BME280;23602;51.084;7.090;2023-04-05T10:25:03;100653.34;;;13.18;42.83
37764;BME280;23602;51.084;7.090;2023-04-05T10:27:43;100657.44;;;12.63;44.24
37764;BME280;23602;51.084;7.090;2023-04-05T10:30:11;100653.53;;;11.93;41.53
37764;BME280;23602;51.084;7.090;2023-04-05T10:40:20;100638.28;;;13.42;41.30
37764;BME280;23602;51.084;7.090;2023-04-05T10:42:48;100640.75;;;13.50;42.62
37764;BME280;23602;51.084;7.090;2023-04-05T10:45:16;100635.31;;;13.05;43.67
37764;BME280;23602;51.084;7.090;2023-04-05T10:48:05;100635.16;;;12.87;43.14
37764;BME280;23602;51.084;7.090;2023-04-05T10:50:32;100638.84;;;13.12;43.50
37764;BME280;23602;51.084;7.090;2023-04-05T10:52:58;100635.59;;;12.91;40.52
37764;BME280;23602;51.084;7.090;2023-04-05T10:55:26;100629.63;;;12.56;43.79
37764;BME280;23602;51.084;7.090;2023-04-05T10:57:56;100626.72;;;12.71;42.91
37764;BME280;23602;51.084;7.090;2023-04-05T11:00:27;100629.34;;;12.90;44.09
37764;BME280;23602;51.084;7.090;2023-04-05T11:03:02;100619.13;;;12.09;41.66
37764;BME280;23602;51.084;7.090;2023-04-05T11:05:32;100619.13;;;12.35;46.49
37764;BME280;23602;51.084;7.090;2023-04-05T11:08:19;100620.78;;;11.90;43.39
37764;BME280;23602;51.084;7.090;2023-04-05T11:10:43;100612.50;;;12.24;44.35
37764;BME280;23602;51.084;7.090;2023-04-05T11:13:16;100608.34;;;11.95;45.01
37764;BME280;23602;51.084;7.090;2023-04-05T11:15:46;100611.47;;;11.99;45.28
37764;BME280;23602;51.084;7.090;2023-04-05T11:18:28;100614.38;;;11.84;43.58
37764;BME280;23602;51.084;7.090;2023-04-05T11:21:06;100607.13;;;11.72;45.81
37764;BME280;23602;51.084;7.090;2023-04-05T11:23:59;100612.41;;;11.46;44.58
37764;BME280;23602;51.084;7.090;2023-04-05T11:26:30;100602.53;;;11.72;46.94
37764;BME280;23602;51.084;7.090;2023-04-05T11:28:56;100592.00;;;11.84;45.98
37764;BME280;23602;51.084;7.090;2023-04-05T11:31:22;100600.69;;;11.99;48.05
37764;BME280;23602;51.084;7.090;2023-04-05T11:33:54;100607.09;;;11.78;42.01
37764;BME280;23602;51.084;7.090;2023-04-05T11:42:01;100606.31;;;11.84;46.41
37764;BME280;23602;51.084;7.090;2023-04-05T11:44:28;100602.16;;;12.15;45.62
37764;BME280;23602;51.084;7.090;2023-04-05T11:47:06;100593.41;;;12.39;44.16
37764;BME280;23602;51.084;7.090;2023-04-05T11:49:32;100589.66;;;12.53;43.22
37764;BME280;23602;51.084;7.090;2023-04-05T11:52:08;100591.13;;;12.36;42.44
37764;BME280;23602;51.084;7.090;2023-04-05T11:54:40;100592.41;;;12.20;41.37
37764;BME280;23602;51.084;7.090;2023-04-05T11:57:17;100579.34;;;12.17;45.38
37764;BME280;23602;51.084;7.090;2023-04-05T11:59:50;100576.88;;;11.96;42.41
37764;BME280;23602;51.084;7.090;2023-04-05T12:02:16;100581.81;;;12.25;42.33
37764;BME280;23602;51.084;7.090;2023-04-05T12:04:53;100576.81;;;12.42;40.99
37764;BME280;23602;51.084;7.090;2023-04-05T12:07:19;100578.41;;;12.56;41.84
37764;BME280;23602;51.084;7.090;2023-04-05T12:10:07;100576.81;;;12.42;42.64
37764;BME280;23602;51.084;7.090;2023-04-05T12:12:42;100570.75;;;12.59;42.48
37764;BME280;23602;51.084;7.090;2023-04-05T12:15:09;100571.13;;;12.69;42.18
37764;BME280;23602;51.084;7.090;2023-04-05T12:20:10;100566.81;;;12.49;40.38
37764;BME280;23602;51.084;7.090;2023-04-05T12:22:36;100561.66;;;12.41;41.73
37764;BME280;23602;51.084;7.090;2023-04-05T12:25:07;100559.50;;;12.69;42.55
37764;BME280;23602;51.084;7.090;2023-04-05T12:27:33;100557.44;;;12.71;41.17
37764;BME280;23602;51.084;7.090;2023-04-05T12:30:14;100555.13;;;12.75;39.92
37764;BME280;23602;51.084;7.090;2023-04-05T12:32:43;100546.91;;;12.56;39.20
37764;BME280;23602;51.084;7.090;2023-04-05T12:35:10;100551.03;;;13.16;45.54
37764;BME280;23602;51.084;7.090;2023-04-05T12:37:36;100536.19;;;13.32;41.32
37764;BME280;23602;51.084;7.090;2023-04-05T12:40:18;100544.56;;;13.17;39.53
37764;BME280;23602;51.084;7.090;2023-04-05T12:42:43;100542.44;;;12.82;39.44
37764;BME280;23602;51.084;7.090;2023-04-05T12:45:21;100542.00;;;12.85;38.69
37764;BME280;23602;51.084;7.090;2023-04-05T12:48:29;100531.13;;;13.04;40.50
37764;BME280;23602;51.084;7.090;2023-04-05T12:50:46;100535.47;;;13.05;39.42
37764;BME280;23602;51.084;7.090;2023-04-05T12:53:18;100531.78;;;13.00;41.37
37764;BME280;23602;51.084;7.090;2023-04-05T12:55:54;100527.81;;;13.40;41.84
37764;BME280;23602;51.084;7.090;2023-04-05T12:58:20;100522.66;;;13.63;44.37
37764;BME280;23602;51.084;7.090;2023-04-05T13:00:45;100521.78;;;13.69;40.57
37764;BME280;23602;51.084;7.090;2023-04-05T13:03:17;100513.38;;;13.53;41.59
37764;BME280;23602;51.084;7.090;2023-04-05T13:05:44;100517.31;;;13.32;39.62
37764;BME280;23602;51.084;7.090;2023-04-05T13:08:10;100514.47;;;13.45;44.35
37764;BME280;23602;51.084;7.090;2023-04-05T13:10:35;100518.75;;;13.28;40.48
37764;BME280;23602;51.084;7.090;2023-04-05T13:13:01;100514.06;;;13.48;43.25
37764;BME280;23602;51.084;7.090;2023-04-05T13:15:26;100510.06;;;13.75;43.62
37764;BME280;23602;51.084;7.090;2023-04-05T13:17:52;100503.22;;;13.55;38.64
37764;BME280;23602;51.084;7.090;2023-04-05T13:20:19;100497.09;;;13.41;41.09
37764;BME280;23602;51.084;7.090;2023-04-05T13:22:44;100503.25;;;13.48;41.53
37764;BME280;23602;51.084;7.090;2023-04-05T13:25:10;100501.03;;;13.39;38.78
37764;BME280;23602;51.084;7.090;2023-04-05T13:27:35;100498.50;;;13.19;41.78
37764;BME280;23602;51.084;7.090;2023-04-05T13:30:04;100493.81;;;13.01;41.23
37764;BME280;23602;51.084;7.090;2023-04-05T13:32:29;100496.09;;;13.36;43.29
37764;BME280;23602;51.084;7.090;2023-04-05T13:34:55;100491.28;;;13.38;37.78